createdAt,value
2022-11-12T00:01:20.359Z,0.82
2022-11-12T00:06:21.873Z,0.60
2022-11-12T00:11:23.338Z,1.35
2022-11-12T00:16:24.759Z,0.80
2022-11-12T00:21:26.239Z,0.85
2022-11-12T00:26:27.698Z,0.70
2022-11-12T00:31:29.228Z,0.82
2022-11-12T00:36:30.849Z,1.17
2022-11-12T00:41:32.245Z,0.43
2022-11-12T00:46:33.697Z,0.60
2022-11-12T00:51:35.313Z,0.20
2022-11-12T00:56:36.863Z,0.80
2022-11-12T01:01:38.621Z,0.40
2022-11-12T01:06:40.768Z,1.20
2022-11-12T01:11:42.241Z,0.65
2022-11-12T01:16:43.838Z,0.40
2022-11-12T01:21:45.363Z,0.50
2022-11-12T01:26:48.111Z,0.98
2022-11-12T01:31:49.603Z,1.25
2022-11-12T01:36:51.078Z,0.30
2022-11-12T01:41:52.517Z,0.55
2022-11-12T01:47:10.685Z,0.28
2022-11-12T01:52:29.436Z,0.60
2022-11-12T01:57:38.126Z,0.45
2022-11-12T02:02:40.560Z,0.32
2022-11-12T02:07:44.578Z,0.70
2022-11-12T02:12:46.654Z,1.05
2022-11-12T02:17:48.185Z,1.55
2022-11-12T02:22:49.617Z,0.73
2022-11-12T02:27:54.026Z,0.50
2022-11-12T02:32:55.504Z,0.45
2022-11-12T02:37:56.965Z,0.43
2022-11-12T02:42:58.497Z,0.50
2022-11-12T02:48:00.045Z,0.40
2022-11-12T02:53:01.464Z,1.00
2022-11-12T02:58:02.943Z,0.40
2022-11-12T03:03:04.638Z,0.60
2022-11-12T03:08:08.632Z,0.60
2022-11-12T03:13:10.146Z,0.75
2022-11-12T03:18:11.754Z,0.22
2022-11-12T03:23:13.229Z,0.40
2022-11-12T03:28:16.373Z,0.82
2022-11-12T03:33:17.823Z,0.50
2022-11-12T03:38:19.291Z,0.55
2022-11-12T03:43:20.827Z,1.25
2022-11-12T03:48:22.553Z,1.08
2022-11-12T03:53:24.631Z,0.63
2022-11-12T03:58:26.389Z,0.85
2022-11-12T04:03:28.070Z,0.65
2022-11-12T04:08:29.561Z,0.40
2022-11-12T04:13:31.211Z,0.60
2022-11-12T04:18:32.678Z,0.60
2022-11-12T04:23:34.107Z,0.70
2022-11-12T04:28:35.525Z,0.85
2022-11-12T04:33:37.035Z,1.17
2022-11-12T04:38:38.567Z,0.45
2022-11-12T04:43:39.965Z,0.68
2022-11-12T04:48:41.473Z,0.52
2022-11-12T04:53:42.988Z,0.57
2022-11-12T04:58:44.571Z,0.70
2022-11-12T05:03:46.053Z,0.70
2022-11-12T05:08:47.563Z,0.70
2022-11-12T05:13:49.006Z,1.05
2022-11-12T05:18:50.542Z,1.08
2022-11-12T05:23:51.959Z,0.68
2022-11-12T05:28:53.416Z,0.90
2022-11-12T05:33:54.827Z,0.68
2022-11-12T05:38:56.333Z,0.73
2022-11-12T05:43:57.805Z,0.40
2022-11-12T05:48:59.270Z,0.43
2022-11-12T05:54:01.190Z,0.28
2022-11-12T05:59:05.487Z,0.50
2022-11-12T06:04:07.012Z,0.20
2022-11-12T06:09:09.325Z,0.40
2022-11-12T06:14:10.832Z,0.40
2022-11-12T06:19:12.333Z,0.40
2022-11-12T06:24:13.839Z,1.05
2022-11-12T06:29:15.294Z,0.40
2022-11-12T06:34:16.737Z,0.75
2022-11-12T06:39:18.194Z,0.50
2022-11-12T06:44:22.354Z,0.30
2022-11-12T06:49:24.070Z,0.95
2022-11-12T06:54:25.624Z,0.70
2022-11-12T06:59:27.109Z,0.70
2022-11-12T07:04:28.701Z,0.65
2022-11-12T07:09:30.132Z,0.47
2022-11-12T07:14:31.561Z,0.60
2022-11-12T07:19:32.989Z,0.60
2022-11-12T07:24:34.502Z,1.00
2022-11-12T07:29:47.574Z,0.43
2022-11-12T07:34:49.997Z,0.80
2022-11-12T07:39:51.445Z,0.98
2022-11-12T07:44:52.924Z,1.00
2022-11-12T07:49:54.407Z,1.15
2022-11-12T07:54:55.874Z,1.60
2022-11-12T07:59:57.335Z,1.65
2022-11-12T08:04:58.911Z,1.20
2022-11-12T08:10:00.390Z,1.70
2022-11-12T08:15:01.841Z,2.20
2022-11-12T08:20:03.548Z,2.33
2022-11-12T08:25:05.381Z,1.67
2022-11-12T08:30:07.790Z,2.15
2022-11-12T08:35:09.318Z,1.70
2022-11-12T08:40:11.560Z,1.60
2022-11-12T08:45:13.132Z,1.40
2022-11-12T08:50:14.672Z,1.30
2022-11-12T08:55:16.155Z,1.92
2022-11-12T09:00:18.048Z,2.63
2022-11-12T09:05:19.540Z,3.03
2022-11-12T09:10:20.916Z,2.33
2022-11-12T11:34:16.793Z,2.42
2022-11-12T11:39:53.829Z,1.95
2022-11-12T11:57:10.635Z,1.55
2022-11-12T12:02:26.517Z,1.60
2022-11-12T12:08:03.201Z,1.80
2022-11-12T12:13:38.806Z,1.98
2022-11-12T12:24:38.185Z,2.25
2022-11-12T12:29:53.697Z,2.08
2022-11-12T12:35:21.574Z,2.33
2022-11-12T15:23:53.051Z,2.53
2022-11-12T19:55:50.166Z,3.83
2022-11-12T20:00:51.838Z,4.45
2022-11-12T20:05:53.311Z,4.50
2022-11-12T20:10:54.835Z,4.25
2022-11-12T20:15:56.407Z,3.72
2022-11-12T20:20:58.095Z,3.65
2022-11-12T20:26:08.767Z,3.60
2022-11-12T20:31:15.985Z,3.03
2022-11-12T20:36:21.728Z,2.88
2022-11-12T20:46:26.721Z,2.65
2022-11-12T20:51:28.359Z,1.90
2022-11-12T20:56:30.742Z,1.90
2022-11-12T21:01:32.382Z,1.67
2022-11-12T21:06:33.921Z,2.75
2022-11-12T21:11:35.341Z,2.33
2022-11-12T21:16:36.728Z,2.58
2022-11-12T21:21:38.153Z,2.40
2022-11-12T21:26:39.745Z,1.95
2022-11-12T21:31:41.184Z,2.33
2022-11-12T21:36:42.809Z,1.65
2022-11-12T21:41:44.246Z,2.08
2022-11-12T21:46:45.649Z,1.80
2022-11-12T21:51:47.070Z,3.08
2022-11-12T21:56:48.488Z,2.28
2022-11-12T22:01:49.925Z,1.88
2022-11-12T22:06:51.396Z,2.58
2022-11-12T22:11:52.871Z,2.90
2022-11-12T22:16:54.276Z,1.85
2022-11-12T22:21:55.670Z,3.58
2022-11-12T22:26:58.941Z,2.53
2022-11-12T22:32:04.299Z,3.55
2022-11-12T22:37:05.806Z,2.30
2022-11-12T22:42:07.328Z,2.22
2022-11-12T22:47:08.797Z,3.10
2022-11-12T22:52:10.192Z,2.05
2022-11-12T22:57:11.627Z,3.38
2022-11-12T23:02:13.105Z,2.38
2022-11-12T23:07:14.698Z,2.40
2022-11-12T23:12:16.241Z,2.38
2022-11-12T23:17:17.718Z,2.80
2022-11-12T23:22:19.217Z,2.67
2022-11-12T23:27:20.614Z,4.13
2022-11-12T23:32:22.115Z,3.85
2022-11-12T23:37:23.578Z,2.53
2022-11-12T23:42:25.091Z,3.75
2022-11-12T23:47:26.774Z,4.15
2022-11-12T23:52:28.247Z,3.10
2022-11-12T23:57:29.691Z,3.80
